Aérodrome :







RETROUVEZ-NOUS SUR...

 
LOGIN :

S'inscrire | Disclaimer

   EN    FR    IT 

 









Légende :    VFR   VFR Marginal   IFR   IFR Intensif   IFR Très Intensif
Visi : 
Plafond : 
>= 8 km
>= 3000ft
5 à 8 km
1000 à 3000 ft
1500m à 5 km
500 à 1000 ft
800 à 1500m
200 à 500 ft
< 800m
< 200 ft
Symboles :   Orages  Brouillard  Fortes neiges  Fortes précipitations  Vent > 20 kt






- Altitude de l'aérodrome : 198 ft
- Code IATA : STM


SBSN - Maestro Wilson Fonseca Int.

DERNIER METAR :
  • 040800Z 12004KT CAVOK 23/23 Q1011

METARs EXPIRÉS :
  • 040700Z 17004KT CAVOK 23/23 Q1011
  • 040600Z 17004KT CAVOK 23/23 Q1011

TAF TAF SBSN
Valide du 04 à 06h jusqu'au 05 à 06h UTC


040300Z 0406/0506 18005KT 8000 SCT013 TX29/0416Z TN24/0505Z
BECMG 0415/0417 09005KT SCT020 FEW025TCU
TEMPO 0421/0424 6000 -TSRA SCT013 FEW023CB
BECMG 0501/0503 18003KT SCT013 RMK PEA
FIR SBAZ / Amérique du Sud



MET'MAP, la Météo Aéronautique d'un coup d'oeil ! - Copyright ORBIFLY Décembre 2007 - Disclaimer

ORBIFLY MET'MAP TEAM :

Programmation & Développement : Alexandra Zaïnal
Sur une idée originale de : Baudouin d'Aumeries
Assistance à la programmation : Marc-Olivier Méhu
Soutien technique & logistique : Manuel Goepfert

Contact : metmap@orbifly.com




SOURCES & CREDITS :

   NOAA